sensor_id;sensor_type;location;lat;lon;timestamp;temperature;humidity
15749;DHT22;7976;52.526;13.326;2022-09-09T00:02:18;15.90;99.90
15749;DHT22;7976;52.526;13.326;2022-09-09T00:04:54;15.90;99.90
15749;DHT22;7976;52.526;13.326;2022-09-09T00:07:36;15.80;99.90
15749;DHT22;7976;52.526;13.326;2022-09-09T00:10:16;15.90;99.90
15749;DHT22;7976;52.526;13.326;2022-09-09T00:12:57;15.80;99.90
15749;DHT22;7976;52.526;13.326;2022-09-09T00:15:38;15.80;99.90
15749;DHT22;7976;52.526;13.326;2022-09-09T00:18:16;15.80;99.90
15749;DHT22;7976;52.526;13.326;2022-09-09T00:20:55;15.80;99.90
15749;DHT22;7976;52.526;13.326;2022-09-09T00:23:32;15.80;99.90
15749;DHT22;7976;52.526;13.326;2022-09-09T00:26:09;15.80;99.90
15749;DHT22;7976;52.526;13.326;2022-09-09T00:28:50;15.80;99.90
15749;DHT22;7976;52.526;13.326;2022-09-09T00:31:28;15.80;99.90
15749;DHT22;7976;52.526;13.326;2022-09-09T00:34:00;15.80;99.90
15749;DHT22;7976;52.526;13.326;2022-09-09T00:36:35;15.80;99.90
15749;DHT22;7976;52.526;13.326;2022-09-09T00:39:04;15.80;99.90
15749;DHT22;7976;52.526;13.326;2022-09-09T00:41:44;15.80;99.90
15749;DHT22;7976;52.526;13.326;2022-09-09T00:44:28;15.70;99.90
15749;DHT22;7976;52.526;13.326;2022-09-09T00:47:12;15.70;99.90
15749;DHT22;7976;52.526;13.326;2022-09-09T00:50:00;15.70;99.90
15749;DHT22;7976;52.526;13.326;2022-09-09T00:52:47;15.70;99.90
15749;DHT22;7976;52.526;13.326;2022-09-09T00:55:28;15.70;99.90
15749;DHT22;7976;52.526;13.326;2022-09-09T00:58:07;15.70;99.90
15749;DHT22;7976;52.526;13.326;2022-09-09T01:00:39;15.70;99.90
15749;DHT22;7976;52.526;13.326;2022-09-09T01:03:32;15.60;99.90
15749;DHT22;7976;52.526;13.326;2022-09-09T01:06:13;15.60;99.90
15749;DHT22;7976;52.526;13.326;2022-09-09T01:08:58;15.60;99.90
15749;DHT22;7976;52.526;13.326;2022-09-09T01:11:43;15.60;99.90
15749;DHT22;7976;52.526;13.326;2022-09-09T01:14:30;15.60;99.90
15749;DHT22;7976;52.526;13.326;2022-09-09T01:17:12;15.60;99.90
15749;DHT22;7976;52.526;13.326;2022-09-09T01:19:57;15.60;99.90
15749;DHT22;7976;52.526;13.326;2022-09-09T01:22:38;15.60;99.90
15749;DHT22;7976;52.526;13.326;2022-09-09T01:25:28;15.60;99.90
15749;DHT22;7976;52.526;13.326;2022-09-09T01:28:09;15.60;99.90
15749;DHT22;7976;52.526;13.326;2022-09-09T01:30:41;15.60;99.90
15749;DHT22;7976;52.526;13.326;2022-09-09T01:33:14;15.60;99.90
15749;DHT22;7976;52.526;13.326;2022-09-09T01:35:48;15.60;99.90
15749;DHT22;7976;52.526;13.326;2022-09-09T01:38:22;15.50;99.90
15749;DHT22;7976;52.526;13.326;2022-09-09T01:40:53;15.50;99.90
15749;DHT22;7976;52.526;13.326;2022-09-09T01:43:27;15.50;99.90
15749;DHT22;7976;52.526;13.326;2022-09-09T01:45:59;15.50;99.90
15749;DHT22;7976;52.526;13.326;2022-09-09T01:48:28;15.50;99.90
15749;DHT22;7976;52.526;13.326;2022-09-09T01:51:07;15.50;99.90
15749;DHT22;7976;52.526;13.326;2022-09-09T01:53:36;15.50;99.90
15749;DHT22;7976;52.526;13.326;2022-09-09T01:56:15;15.40;99.90
15749;DHT22;7976;52.526;13.326;2022-09-09T01:59:03;15.50;99.90
15749;DHT22;7976;52.526;13.326;2022-09-09T02:01:46;15.40;99.90
15749;DHT22;7976;52.526;13.326;2022-09-09T02:04:35;15.40;99.90
15749;DHT22;7976;52.526;13.326;2022-09-09T02:07:21;15.40;99.90
15749;DHT22;7976;52.526;13.326;2022-09-09T02:10:12;15.40;99.90
15749;DHT22;7976;52.526;13.326;2022-09-09T02:12:55;15.40;99.90
15749;DHT22;7976;52.526;13.326;2022-09-09T02:15:33;15.40;99.90
15749;DHT22;7976;52.526;13.326;2022-09-09T02:18:08;15.40;99.90
15749;DHT22;7976;52.526;13.326;2022-09-09T02:20:40;15.40;99.90
15749;DHT22;7976;52.526;13.326;2022-09-09T02:23:11;15.40;99.90
15749;DHT22;7976;52.526;13.326;2022-09-09T02:25:40;15.40;99.90
15749;DHT22;7976;52.526;13.326;2022-09-09T02:28:18;15.30;99.90
15749;DHT22;7976;52.526;13.326;2022-09-09T02:30:51;15.30;99.90
15749;DHT22;7976;52.526;13.326;2022-09-09T02:33:24;15.30;99.90
15749;DHT22;7976;52.526;13.326;2022-09-09T02:35:55;15.20;99.90
15749;DHT22;7976;52.526;13.326;2022-09-09T02:38:33;15.30;99.90
15749;DHT22;7976;52.526;13.326;2022-09-09T02:41:08;15.20;99.90
15749;DHT22;7976;52.526;13.326;2022-09-09T02:43:36;15.20;99.90
15749;DHT22;7976;52.526;13.326;2022-09-09T02:46:23;15.20;99.90
15749;DHT22;7976;52.526;13.326;2022-09-09T02:49:01;15.20;99.90
15749;DHT22;7976;52.526;13.326;2022-09-09T02:51:44;15.20;99.90
15749;DHT22;7976;52.526;13.326;2022-09-09T02:54:24;15.20;99.90
15749;DHT22;7976;52.526;13.326;2022-09-09T02:56:59;15.20;99.90
15749;DHT22;7976;52.526;13.326;2022-09-09T02:59:37;15.20;99.90
15749;DHT22;7976;52.526;13.326;2022-09-09T03:02:06;15.20;99.90
15749;DHT22;7976;52.526;13.326;2022-09-09T03:04:35;15.10;99.90
15749;DHT22;7976;52.526;13.326;2022-09-09T03:07:03;15.20;99.90
15749;DHT22;7976;52.526;13.326;2022-09-09T03:09:31;15.20;99.90
15749;DHT22;7976;52.526;13.326;2022-09-09T03:11:59;15.10;99.90
15749;DHT22;7976;52.526;13.326;2022-09-09T03:14:27;15.10;99.90
15749;DHT22;7976;52.526;13.326;2022-09-09T03:16:54;15.10;99.90
15749;DHT22;7976;52.526;13.326;2022-09-09T03:19:25;15.10;99.90
15749;DHT22;7976;52.526;13.326;2022-09-09T03:21:53;15.10;99.90
15749;DHT22;7976;52.526;13.326;2022-09-09T03:24:20;15.10;99.90
15749;DHT22;7976;52.526;13.326;2022-09-09T03:26:48;15.10;99.90
15749;DHT22;7976;52.526;13.326;2022-09-09T03:29:16;15.10;99.90
15749;DHT22;7976;52.526;13.326;2022-09-09T03:31:44;15.10;99.90
15749;DHT22;7976;52.526;13.326;2022-09-09T03:34:11;15.10;99.90
15749;DHT22;7976;52.526;13.326;2022-09-09T03:36:41;15.10;99.90
15749;DHT22;7976;52.526;13.326;2022-09-09T03:39:08;15.10;99.90
15749;DHT22;7976;52.526;13.326;2022-09-09T03:41:35;15.00;99.90
15749;DHT22;7976;52.526;13.326;2022-09-09T03:44:03;15.00;99.90
15749;DHT22;7976;52.526;13.326;2022-09-09T03:46:35;15.10;99.90
15749;DHT22;7976;52.526;13.326;2022-09-09T03:49:03;15.10;99.90
15749;DHT22;7976;52.526;13.326;2022-09-09T03:51:31;15.00;99.90
15749;DHT22;7976;52.526;13.326;2022-09-09T03:54:04;15.00;99.90
15749;DHT22;7976;52.526;13.326;2022-09-09T03:56:34;15.00;99.90
15749;DHT22;7976;52.526;13.326;2022-09-09T03:59:01;15.00;99.90
15749;DHT22;7976;52.526;13.326;2022-09-09T04:01:29;15.00;99.90
15749;DHT22;7976;52.526;13.326;2022-09-09T04:03:55;15.00;99.90
15749;DHT22;7976;52.526;13.326;2022-09-09T04:06:24;15.00;99.90
15749;DHT22;7976;52.526;13.326;2022-09-09T04:08:51;15.00;99.90
15749;DHT22;7976;52.526;13.326;2022-09-09T04:11:20;15.00;99.90
15749;DHT22;7976;52.526;13.326;2022-09-09T04:13:50;14.90;99.90
15749;DHT22;7976;52.526;13.326;2022-09-09T04:16:18;14.90;99.90
15749;DHT22;7976;52.526;13.326;2022-09-09T04:18:46;14.90;99.90
15749;DHT22;7976;52.526;13.326;2022-09-09T04:21:15;14.90;99.90
15749;DHT22;7976;52.526;13.326;2022-09-09T04:23:42;14.90;99.90
15749;DHT22;7976;52.526;13.326;2022-09-09T04:26:09;14.90;99.90
15749;DHT22;7976;52.526;13.326;2022-09-09T04:28:38;14.90;99.90
15749;DHT22;7976;52.526;13.326;2022-09-09T04:31:15;14.80;99.90
15749;DHT22;7976;52.526;13.326;2022-09-09T04:33:44;14.80;99.90
15749;DHT22;7976;52.526;13.326;2022-09-09T04:36:12;14.90;99.90
15749;DHT22;7976;52.526;13.326;2022-09-09T04:38:39;14.90;99.90
15749;DHT22;7976;52.526;13.326;2022-09-09T04:41:06;14.90;99.90
15749;DHT22;7976;52.526;13.326;2022-09-09T04:43:38;14.90;99.90
15749;DHT22;7976;52.526;13.326;2022-09-09T04:46:07;14.90;99.90
15749;DHT22;7976;52.526;13.326;2022-09-09T04:48:34;14.90;99.90
15749;DHT22;7976;52.526;13.326;2022-09-09T04:51:05;14.90;99.90
15749;DHT22;7976;52.526;13.326;2022-09-09T04:53:33;14.90;99.90
15749;DHT22;7976;52.526;13.326;2022-09-09T04:56:02;14.90;99.90
15749;DHT22;7976;52.526;13.326;2022-09-09T04:58:32;14.90;99.90
15749;DHT22;7976;52.526;13.326;2022-09-09T05:01:05;14.90;99.90
15749;DHT22;7976;52.526;13.326;2022-09-09T05:03:35;15.00;99.90
15749;DHT22;7976;52.526;13.326;2022-09-09T05:06:07;15.00;99.90
15749;DHT22;7976;52.526;13.326;2022-09-09T05:08:36;15.00;99.90
15749;DHT22;7976;52.526;13.326;2022-09-09T05:11:11;15.00;99.90
15749;DHT22;7976;52.526;13.326;2022-09-09T05:13:40;15.00;99.90
15749;DHT22;7976;52.526;13.326;2022-09-09T05:16:08;15.00;99.90
15749;DHT22;7976;52.526;13.326;2022-09-09T05:18:36;15.00;99.90
15749;DHT22;7976;52.526;13.326;2022-09-09T05:21:04;15.10;99.90
15749;DHT22;7976;52.526;13.326;2022-09-09T05:23:31;15.10;99.90
15749;DHT22;7976;52.526;13.326;2022-09-09T05:25:59;15.10;99.90
15749;DHT22;7976;52.526;13.326;2022-09-09T05:28:28;15.20;99.90
15749;DHT22;7976;52.526;13.326;2022-09-09T05:31:00;15.20;99.90
15749;DHT22;7976;52.526;13.326;2022-09-09T05:33:31;15.30;99.90
15749;DHT22;7976;52.526;13.326;2022-09-09T05:36:00;15.30;99.90
15749;DHT22;7976;52.526;13.326;2022-09-09T05:38:30;15.30;99.90
15749;DHT22;7976;52.526;13.326;2022-09-09T05:40:58;15.30;99.90
15749;DHT22;7976;52.526;13.326;2022-09-09T05:43:26;15.40;99.90
15749;DHT22;7976;52.526;13.326;2022-09-09T05:46:02;15.30;99.90
15749;DHT22;7976;52.526;13.326;2022-09-09T05:48:33;15.30;99.90
15749;DHT22;7976;52.526;13.326;2022-09-09T05:51:03;15.40;99.90
15749;DHT22;7976;52.526;13.326;2022-09-09T05:53:32;15.40;99.90
15749;DHT22;7976;52.526;13.326;2022-09-09T05:56:01;15.40;99.90
15749;DHT22;7976;52.526;13.326;2022-09-09T05:58:31;15.40;99.90
15749;DHT22;7976;52.526;13.326;2022-09-09T06:01:01;15.50;99.90
15749;DHT22;7976;52.526;13.326;2022-09-09T06:03:34;15.50;99.90
15749;DHT22;7976;52.526;13.326;2022-09-09T06:06:04;15.50;99.90
15749;DHT22;7976;52.526;13.326;2022-09-09T06:08:33;15.60;99.90
15749;DHT22;7976;52.526;13.326;2022-09-09T06:11:04;15.60;99.90
15749;DHT22;7976;52.526;13.326;2022-09-09T06:13:34;15.60;99.90
15749;DHT22;7976;52.526;13.326;2022-09-09T06:16:02;15.60;99.90
15749;DHT22;7976;52.526;13.326;2022-09-09T06:18:31;15.60;99.90
15749;DHT22;7976;52.526;13.326;2022-09-09T06:21:00;15.70;99.90
15749;DHT22;7976;52.526;13.326;2022-09-09T06:23:30;15.70;99.90
15749;DHT22;7976;52.526;13.326;2022-09-09T06:26:04;15.70;99.90
15749;DHT22;7976;52.526;13.326;2022-09-09T06:28:34;15.80;99.90
15749;DHT22;7976;52.526;13.326;2022-09-09T06:31:03;15.80;99.90
15749;DHT22;7976;52.526;13.326;2022-09-09T06:33:34;15.80;99.90
15749;DHT22;7976;52.526;13.326;2022-09-09T06:36:03;15.80;99.90
15749;DHT22;7976;52.526;13.326;2022-09-09T06:38:31;15.90;99.90
15749;DHT22;7976;52.526;13.326;2022-09-09T06:40:59;16.00;99.90
15749;DHT22;7976;52.526;13.326;2022-09-09T06:43:28;15.90;99.90
15749;DHT22;7976;52.526;13.326;2022-09-09T06:45:58;16.00;99.90
15749;DHT22;7976;52.526;13.326;2022-09-09T06:48:26;15.90;99.90
15749;DHT22;7976;52.526;13.326;2022-09-09T06:51:03;15.90;99.90
15749;DHT22;7976;52.526;13.326;2022-09-09T06:53:31;16.00;99.90
15749;DHT22;7976;52.526;13.326;2022-09-09T06:56:00;16.00;99.90
15749;DHT22;7976;52.526;13.326;2022-09-09T06:58:28;16.10;99.90
15749;DHT22;7976;52.526;13.326;2022-09-09T07:01:05;16.20;99.90
15749;DHT22;7976;52.526;13.326;2022-09-09T07:03:33;16.30;99.90
15749;DHT22;7976;52.526;13.326;2022-09-09T07:06:02;16.40;99.90
15749;DHT22;7976;52.526;13.326;2022-09-09T07:08:29;16.50;99.90
15749;DHT22;7976;52.526;13.326;2022-09-09T07:11:03;16.70;99.90
15749;DHT22;7976;52.526;13.326;2022-09-09T07:13:34;16.80;99.90
15749;DHT22;7976;52.526;13.326;2022-09-09T07:16:04;16.90;99.90
15749;DHT22;7976;52.526;13.326;2022-09-09T07:18:32;17.00;99.90
15749;DHT22;7976;52.526;13.326;2022-09-09T07:21:02;17.00;99.90
15749;DHT22;7976;52.526;13.326;2022-09-09T07:23:30;17.10;99.90
15749;DHT22;7976;52.526;13.326;2022-09-09T07:25:57;17.20;99.90
15749;DHT22;7976;52.526;13.326;2022-09-09T07:28:26;17.30;99.90
15749;DHT22;7976;52.526;13.326;2022-09-09T07:30:55;17.40;99.90
15749;DHT22;7976;52.526;13.326;2022-09-09T07:33:23;17.50;99.90
15749;DHT22;7976;52.526;13.326;2022-09-09T07:35:50;17.60;99.90
15749;DHT22;7976;52.526;13.326;2022-09-09T07:38:20;17.80;99.90
15749;DHT22;7976;52.526;13.326;2022-09-09T07:40:49;17.90;99.90
15749;DHT22;7976;52.526;13.326;2022-09-09T07:43:16;18.10;99.90
15749;DHT22;7976;52.526;13.326;2022-09-09T07:45:44;18.20;99.90
15749;DHT22;7976;52.526;13.326;2022-09-09T07:48:11;18.40;99.90
15749;DHT22;7976;52.526;13.326;2022-09-09T07:50:38;18.60;99.90
15749;DHT22;7976;52.526;13.326;2022-09-09T07:53:05;18.60;99.90
15749;DHT22;7976;52.526;13.326;2022-09-09T07:55:33;18.70;99.90
15749;DHT22;7976;52.526;13.326;2022-09-09T07:58:00;18.70;99.90
15749;DHT22;7976;52.526;13.326;2022-09-09T08:00:27;18.80;99.90
15749;DHT22;7976;52.526;13.326;2022-09-09T08:02:56;18.80;99.90
15749;DHT22;7976;52.526;13.326;2022-09-09T08:05:23;18.80;99.90
15749;DHT22;7976;52.526;13.326;2022-09-09T08:07:50;18.80;99.90
15749;DHT22;7976;52.526;13.326;2022-09-09T08:10:17;18.90;99.90
15749;DHT22;7976;52.526;13.326;2022-09-09T08:12:47;18.90;99.90
15749;DHT22;7976;52.526;13.326;2022-09-09T08:15:15;19.00;99.90
15749;DHT22;7976;52.526;13.326;2022-09-09T08:17:43;19.00;99.90
15749;DHT22;7976;52.526;13.326;2022-09-09T08:20:10;19.00;99.90
15749;DHT22;7976;52.526;13.326;2022-09-09T08:22:37;19.10;99.90
15749;DHT22;7976;52.526;13.326;2022-09-09T08:25:05;19.10;99.90
15749;DHT22;7976;52.526;13.326;2022-09-09T08:27:35;19.10;99.90
15749;DHT22;7976;52.526;13.326;2022-09-09T08:30:05;19.10;99.90
15749;DHT22;7976;52.526;13.326;2022-09-09T08:32:33;19.00;99.90
15749;DHT22;7976;52.526;13.326;2022-09-09T08:35:01;19.00;99.90
15749;DHT22;7976;52.526;13.326;2022-09-09T08:37:29;18.90;99.90
15749;DHT22;7976;52.526;13.326;2022-09-09T08:39:57;18.90;99.90
15749;DHT22;7976;52.526;13.326;2022-09-09T08:42:34;19.00;99.90
15749;DHT22;7976;52.526;13.326;2022-09-09T08:45:24;19.00;99.90
15749;DHT22;7976;52.526;13.326;2022-09-09T08:48:17;19.10;99.90
15749;DHT22;7976;52.526;13.326;2022-09-09T08:50:53;19.10;99.90
15749;DHT22;7976;52.526;13.326;2022-09-09T08:53:29;19.10;99.90
15749;DHT22;7976;52.526;13.326;2022-09-09T08:56:10;19.10;99.90
15749;DHT22;7976;52.526;13.326;2022-09-09T08:58:54;19.10;99.90
15749;DHT22;7976;52.526;13.326;2022-09-09T09:01:57;19.00;99.90
15749;DHT22;7976;52.526;13.326;2022-09-09T09:04:47;19.00;99.90
15749;DHT22;7976;52.526;13.326;2022-09-09T09:07:35;19.10;99.90
15749;DHT22;7976;52.526;13.326;2022-09-09T09:10:25;19.10;99.90
15749;DHT22;7976;52.526;13.326;2022-09-09T09:13:09;19.20;99.90
15749;DHT22;7976;52.526;13.326;2022-09-09T09:15:42;19.20;99.90
15749;DHT22;7976;52.526;13.326;2022-09-09T09:18:14;19.40;99.90
15749;DHT22;7976;52.526;13.326;2022-09-09T09:20:50;19.40;99.90
15749;DHT22;7976;52.526;13.326;2022-09-09T09:23:31;19.50;99.90
15749;DHT22;7976;52.526;13.326;2022-09-09T09:26:09;19.70;99.90
15749;DHT22;7976;52.526;13.326;2022-09-09T09:28:39;19.90;99.90
15749;DHT22;7976;52.526;13.326;2022-09-09T09:31:12;20.00;99.90
15749;DHT22;7976;52.526;13.326;2022-09-09T09:33:47;20.20;99.90
15749;DHT22;7976;52.526;13.326;2022-09-09T09:36:18;20.40;99.90
15749;DHT22;7976;52.526;13.326;2022-09-09T09:38:56;20.40;99.90
15749;DHT22;7976;52.526;13.326;2022-09-09T09:41:31;20.50;99.90
15749;DHT22;7976;52.526;13.326;2022-09-09T09:44:01;20.50;99.90
15749;DHT22;7976;52.526;13.326;2022-09-09T09:46:31;20.50;99.90
15749;DHT22;7976;52.526;13.326;2022-09-09T09:49:12;20.50;99.90
15749;DHT22;7976;52.526;13.326;2022-09-09T09:51:40;20.60;99.90
15749;DHT22;7976;52.526;13.326;2022-09-09T09:54:17;20.60;99.90
15749;DHT22;7976;52.526;13.326;2022-09-09T09:57:08;20.70;99.90
15749;DHT22;7976;52.526;13.326;2022-09-09T09:59:37;20.70;99.90
15749;DHT22;7976;52.526;13.326;2022-09-09T10:02:19;20.80;99.90
15749;DHT22;7976;52.526;13.326;2022-09-09T10:05:03;20.90;99.90
15749;DHT22;7976;52.526;13.326;2022-09-09T10:07:34;21.00;99.90
15749;DHT22;7976;52.526;13.326;2022-09-09T10:10:03;21.00;99.90
15749;DHT22;7976;52.526;13.326;2022-09-09T10:12:40;21.00;99.90
15749;DHT22;7976;52.526;13.326;2022-09-09T10:15:28;21.00;99.90
15749;DHT22;7976;52.526;13.326;2022-09-09T10:18:14;20.90;99.90
15749;DHT22;7976;52.526;13.326;2022-09-09T10:20:57;21.00;99.90
15749;DHT22;7976;52.526;13.326;2022-09-09T10:23:46;21.10;99.90
15749;DHT22;7976;52.526;13.326;2022-09-09T10:26:32;21.20;99.90
15749;DHT22;7976;52.526;13.326;2022-09-09T10:29:29;21.40;99.90
15749;DHT22;7976;52.526;13.326;2022-09-09T10:32:23;21.40;99.90
15749;DHT22;7976;52.526;13.326;2022-09-09T10:35:16;21.50;99.90
15749;DHT22;7976;52.526;13.326;2022-09-09T10:41:13;21.40;99.90
15749;DHT22;7976;52.526;13.326;2022-09-09T10:44:18;21.50;99.90
15749;DHT22;7976;52.526;13.326;2022-09-09T10:47:13;21.70;99.90
15749;DHT22;7976;52.526;13.326;2022-09-09T10:50:18;21.80;99.90
15749;DHT22;7976;52.526;13.326;2022-09-09T10:53:22;21.80;99.90
15749;DHT22;7976;52.526;13.326;2022-09-09T10:56:02;21.80;99.90
15749;DHT22;7976;52.526;13.326;2022-09-09T10:58:36;21.80;99.90
15749;DHT22;7976;52.526;13.326;2022-09-09T11:01:13;21.90;99.90
15749;DHT22;7976;52.526;13.326;2022-09-09T11:03:51;22.00;99.90
15749;DHT22;7976;52.526;13.326;2022-09-09T11:06:28;22.00;99.90
15749;DHT22;7976;52.526;13.326;2022-09-09T11:09:00;22.10;99.90
15749;DHT22;7976;52.526;13.326;2022-09-09T11:11:34;22.10;99.90
15749;DHT22;7976;52.526;13.326;2022-09-09T11:14:10;22.10;99.90
15749;DHT22;7976;52.526;13.326;2022-09-09T11:16:44;22.10;99.90
15749;DHT22;7976;52.526;13.326;2022-09-09T11:19:17;22.10;99.90
15749;DHT22;7976;52.526;13.326;2022-09-09T11:21:53;22.10;99.90
15749;DHT22;7976;52.526;13.326;2022-09-09T11:24:27;22.00;99.90
15749;DHT22;7976;52.526;13.326;2022-09-09T11:27:03;21.90;99.90
15749;DHT22;7976;52.526;13.326;2022-09-09T11:33:19;21.80;99.90
15749;DHT22;7976;52.526;13.326;2022-09-09T11:36:24;21.80;99.90
15749;DHT22;7976;52.526;13.326;2022-09-09T11:39:20;21.90;99.90
15749;DHT22;7976;52.526;13.326;2022-09-09T11:42:16;22.10;99.90
15749;DHT22;7976;52.526;13.326;2022-09-09T11:44:45;22.20;99.90
15749;DHT22;7976;52.526;13.326;2022-09-09T11:47:25;22.30;99.90
15749;DHT22;7976;52.526;13.326;2022-09-09T11:50:06;22.40;99.90
15749;DHT22;7976;52.526;13.326;2022-09-09T11:52:41;22.50;99.90
15749;DHT22;7976;52.526;13.326;2022-09-09T11:55:25;22.60;99.90
15749;DHT22;7976;52.526;13.326;2022-09-09T11:57:57;22.40;99.90
15749;DHT22;7976;52.526;13.326;2022-09-09T12:00:34;22.30;99.90
15749;DHT22;7976;52.526;13.326;2022-09-09T12:03:03;22.30;99.90
15749;DHT22;7976;52.526;13.326;2022-09-09T12:05:40;22.50;99.90
15749;DHT22;7976;52.526;13.326;2022-09-09T12:08:09;22.60;99.90
15749;DHT22;7976;52.526;13.326;2022-09-09T12:10:53;22.80;99.90
15749;DHT22;7976;52.526;13.326;2022-09-09T12:13:23;22.90;99.90
15749;DHT22;7976;52.526;13.326;2022-09-09T12:15:53;22.90;99.90
15749;DHT22;7976;52.526;13.326;2022-09-09T12:18:23;22.90;99.90
15749;DHT22;7976;52.526;13.326;2022-09-09T12:20:57;22.90;99.90
15749;DHT22;7976;52.526;13.326;2022-09-09T12:23:40;22.90;99.90
15749;DHT22;7976;52.526;13.326;2022-09-09T12:26:25;22.80;99.90
15749;DHT22;7976;52.526;13.326;2022-09-09T12:29:04;22.70;99.90
15749;DHT22;7976;52.526;13.326;2022-09-09T12:31:45;22.70;99.90
15749;DHT22;7976;52.526;13.326;2022-09-09T12:34:19;22.70;99.90
15749;DHT22;7976;52.526;13.326;2022-09-09T12:37:02;22.70;99.90
15749;DHT22;7976;52.526;13.326;2022-09-09T12:39:35;22.60;99.90
15749;DHT22;7976;52.526;13.326;2022-09-09T12:42:17;22.60;99.90
15749;DHT22;7976;52.526;13.326;2022-09-09T12:44:52;22.50;99.90
15749;DHT22;7976;52.526;13.326;2022-09-09T12:47:22;22.50;99.90
15749;DHT22;7976;52.526;13.326;2022-09-09T12:50:00;22.40;99.90
15749;DHT22;7976;52.526;13.326;2022-09-09T12:52:30;22.40;99.90
15749;DHT22;7976;52.526;13.326;2022-09-09T12:55:03;22.40;99.90
15749;DHT22;7976;52.526;13.326;2022-09-09T12:57:35;22.40;99.90
15749;DHT22;7976;52.526;13.326;2022-09-09T13:00:07;22.40;99.90
15749;DHT22;7976;52.526;13.326;2022-09-09T13:02:50;22.30;99.90
15749;DHT22;7976;52.526;13.326;2022-09-09T13:05:21;22.30;99.90
15749;DHT22;7976;52.526;13.326;2022-09-09T13:07:50;22.30;99.90
15749;DHT22;7976;52.526;13.326;2022-09-09T13:10:23;22.20;99.90
15749;DHT22;7976;52.526;13.326;2022-09-09T13:12:54;22.20;99.90
15749;DHT22;7976;52.526;13.326;2022-09-09T13:15:25;22.20;99.90
15749;DHT22;7976;52.526;13.326;2022-09-09T13:17:56;22.10;99.90
15749;DHT22;7976;52.526;13.326;2022-09-09T13:20:26;22.10;99.90
15749;DHT22;7976;52.526;13.326;2022-09-09T13:22:55;22.10;99.90
15749;DHT22;7976;52.526;13.326;2022-09-09T13:25:25;22.00;99.90
15749;DHT22;7976;52.526;13.326;2022-09-09T13:28:00;22.00;99.90
15749;DHT22;7976;52.526;13.326;2022-09-09T13:30:30;21.90;99.90
15749;DHT22;7976;52.526;13.326;2022-09-09T13:33:20;21.90;99.90
15749;DHT22;7976;52.526;13.326;2022-09-09T13:35:51;21.90;99.90
15749;DHT22;7976;52.526;13.326;2022-09-09T13:38:21;21.90;99.90
15749;DHT22;7976;52.526;13.326;2022-09-09T13:40:55;21.80;99.90
15749;DHT22;7976;52.526;13.326;2022-09-09T13:43:26;21.80;99.90
15749;DHT22;7976;52.526;13.326;2022-09-09T13:45:55;21.80;99.90
15749;DHT22;7976;52.526;13.326;2022-09-09T13:48:25;21.80;99.90
15749;DHT22;7976;52.526;13.326;2022-09-09T13:50:57;21.90;99.90
15749;DHT22;7976;52.526;13.326;2022-09-09T13:53:25;22.00;99.90
15749;DHT22;7976;52.526;13.326;2022-09-09T13:55:53;22.10;99.90
15749;DHT22;7976;52.526;13.326;2022-09-09T13:58:20;22.40;99.90
15749;DHT22;7976;52.526;13.326;2022-09-09T14:00:49;22.50;99.90
15749;DHT22;7976;52.526;13.326;2022-09-09T14:03:16;22.50;99.90
15749;DHT22;7976;52.526;13.326;2022-09-09T14:05:43;22.50;99.90
15749;DHT22;7976;52.526;13.326;2022-09-09T14:08:16;22.40;99.90
15749;DHT22;7976;52.526;13.326;2022-09-09T14:10:50;22.50;99.90
15749;DHT22;7976;52.526;13.326;2022-09-09T14:13:18;22.50;99.90
15749;DHT22;7976;52.526;13.326;2022-09-09T14:15:49;22.50;99.90
15749;DHT22;7976;52.526;13.326;2022-09-09T14:18:16;22.50;99.90
15749;DHT22;7976;52.526;13.326;2022-09-09T14:20:44;22.40;99.90
15749;DHT22;7976;52.526;13.326;2022-09-09T14:23:12;22.40;99.90
15749;DHT22;7976;52.526;13.326;2022-09-09T14:25:40;22.40;99.90
15749;DHT22;7976;52.526;13.326;2022-09-09T14:28:09;22.40;99.90
15749;DHT22;7976;52.526;13.326;2022-09-09T14:30:39;22.30;99.90
15749;DHT22;7976;52.526;13.326;2022-09-09T14:33:10;22.20;99.90
15749;DHT22;7976;52.526;13.326;2022-09-09T14:35:38;22.20;99.90
15749;DHT22;7976;52.526;13.326;2022-09-09T14:38:06;22.20;99.90
15749;DHT22;7976;52.526;13.326;2022-09-09T14:40:34;22.20;99.90
15749;DHT22;7976;52.526;13.326;2022-09-09T14:43:02;22.30;99.90
15749;DHT22;7976;52.526;13.326;2022-09-09T14:45:29;22.30;99.90
15749;DHT22;7976;52.526;13.326;2022-09-09T14:47:56;22.20;99.90
15749;DHT22;7976;52.526;13.326;2022-09-09T14:50:25;22.20;99.90
15749;DHT22;7976;52.526;13.326;2022-09-09T14:52:52;22.20;99.90
15749;DHT22;7976;52.526;13.326;2022-09-09T14:55:19;22.10;99.90
15749;DHT22;7976;52.526;13.326;2022-09-09T14:57:46;22.00;99.90
15749;DHT22;7976;52.526;13.326;2022-09-09T15:00:13;22.00;99.90
15749;DHT22;7976;52.526;13.326;2022-09-09T15:02:41;21.90;99.90
15749;DHT22;7976;52.526;13.326;2022-09-09T15:05:08;21.90;99.90
15749;DHT22;7976;52.526;13.326;2022-09-09T15:07:37;21.90;99.90
15749;DHT22;7976;52.526;13.326;2022-09-09T15:10:05;21.90;99.90
15749;DHT22;7976;52.526;13.326;2022-09-09T15:12:32;21.90;99.90
15749;DHT22;7976;52.526;13.326;2022-09-09T15:15:01;21.90;99.90
15749;DHT22;7976;52.526;13.326;2022-09-09T15:17:28;22.00;99.90
15749;DHT22;7976;52.526;13.326;2022-09-09T15:19:55;22.00;99.90
15749;DHT22;7976;52.526;13.326;2022-09-09T15:22:22;22.10;99.90
15749;DHT22;7976;52.526;13.326;2022-09-09T15:24:51;22.10;99.90
15749;DHT22;7976;52.526;13.326;2022-09-09T15:27:17;22.10;99.90
15749;DHT22;7976;52.526;13.326;2022-09-09T15:29:44;22.10;99.90
15749;DHT22;7976;52.526;13.326;2022-09-09T15:32:12;22.00;99.90
15749;DHT22;7976;52.526;13.326;2022-09-09T15:34:39;21.90;99.90
15749;DHT22;7976;52.526;13.326;2022-09-09T15:37:06;21.80;99.90
15749;DHT22;7976;52.526;13.326;2022-09-09T15:39:33;21.70;99.90
15749;DHT22;7976;52.526;13.326;2022-09-09T15:42:01;21.60;99.90
15749;DHT22;7976;52.526;13.326;2022-09-09T15:44:28;21.60;99.90
15749;DHT22;7976;52.526;13.326;2022-09-09T15:46:55;21.50;99.90
15749;DHT22;7976;52.526;13.326;2022-09-09T15:49:23;21.50;99.90
15749;DHT22;7976;52.526;13.326;2022-09-09T15:51:52;21.40;99.90
15749;DHT22;7976;52.526;13.326;2022-09-09T15:54:22;21.30;99.90
15749;DHT22;7976;52.526;13.326;2022-09-09T15:56:51;21.30;99.90
15749;DHT22;7976;52.526;13.326;2022-09-09T15:59:22;21.20;99.90
15749;DHT22;7976;52.526;13.326;2022-09-09T16:01:51;21.20;99.90
15749;DHT22;7976;52.526;13.326;2022-09-09T16:04:20;21.10;99.90
15749;DHT22;7976;52.526;13.326;2022-09-09T16:06:50;21.10;99.90
15749;DHT22;7976;52.526;13.326;2022-09-09T16:09:17;21.00;99.90
15749;DHT22;7976;52.526;13.326;2022-09-09T16:11:45;21.00;99.90
15749;DHT22;7976;52.526;13.326;2022-09-09T16:14:12;20.90;99.90
15749;DHT22;7976;52.526;13.326;2022-09-09T16:16:42;20.90;99.90